createdAt,value
2022-08-16T00:00:03.788Z,24.7
2022-08-16T00:01:24.664Z,24.7
2022-08-16T00:02:43.062Z,24.7
2022-08-16T00:03:49.248Z,24.7
2022-08-16T00:04:51.497Z,24.7
2022-08-16T00:05:57.418Z,24.7
2022-08-16T00:06:59.671Z,24.6
2022-08-16T00:08:04.907Z,24.6
2022-08-16T00:09:06.723Z,24.6
2022-08-16T00:10:08.489Z,24.6
2022-08-16T00:11:22.873Z,24.6
2022-08-16T00:12:26.674Z,24.6
2022-08-16T00:13:28.862Z,24.6
2022-08-16T00:14:30.524Z,24.6
2022-08-16T00:15:51.273Z,24.6
2022-08-16T00:17:01.763Z,24.6
2022-08-16T00:18:22.194Z,24.6
2022-08-16T00:19:41.413Z,24.6
2022-08-16T00:20:43.818Z,24.6
2022-08-16T00:21:45.360Z,24.6
2022-08-16T00:22:47.077Z,24.5
2022-08-16T00:23:52.668Z,24.5
2022-08-16T00:24:54.602Z,24.5
2022-08-16T00:26:33.957Z,24.5
2022-08-16T00:27:47.074Z,24.6
2022-08-16T00:28:49.672Z,24.6
2022-08-16T00:30:00.397Z,24.6
2022-08-16T00:31:47.025Z,24.6
2022-08-16T00:33:08.378Z,24.6
2022-08-16T00:34:18.005Z,24.6
2022-08-16T00:35:21.225Z,24.6
2022-08-16T00:36:22.918Z,24.6
2022-08-16T00:37:56.525Z,24.6
2022-08-16T00:39:01.192Z,24.6
2022-08-16T00:40:05.518Z,24.6
2022-08-16T00:41:55.080Z,24.6
2022-08-16T00:42:56.834Z,24.6
2022-08-16T00:43:58.420Z,24.5
2022-08-16T00:45:00.038Z,24.5
2022-08-16T00:46:22.555Z,24.5
2022-08-16T00:47:37.148Z,24.5
2022-08-16T00:48:43.745Z,24.5
2022-08-16T00:49:56.200Z,24.5
2022-08-16T00:50:58.529Z,24.5
2022-08-16T00:52:01.369Z,24.5
2022-08-16T00:53:03.387Z,24.5
2022-08-16T00:54:05.015Z,24.5
2022-08-16T00:55:08.313Z,24.5
2022-08-16T00:56:40.207Z,24.5
2022-08-16T00:58:01.760Z,24.5
2022-08-16T00:59:03.326Z,24.5
2022-08-16T01:00:06.409Z,24.5
2022-08-16T01:01:10.566Z,24.5
2022-08-16T01:02:21.743Z,24.5
2022-08-16T01:03:34.949Z,24.5
2022-08-16T01:04:36.873Z,24.5
2022-08-16T01:05:39.093Z,24.5
2022-08-16T01:06:49.086Z,24.4
2022-08-16T01:08:34.952Z,24.4
2022-08-16T01:09:42.860Z,24.5
2022-08-16T01:10:45.355Z,24.5
2022-08-16T01:11:51.830Z,24.4
2022-08-16T01:13:00.122Z,24.4
2022-08-16T01:14:02.055Z,24.4
2022-08-16T01:15:04.060Z,24.4
2022-08-16T01:16:05.658Z,24.4
2022-08-16T01:17:12.273Z,24.4
2022-08-16T01:18:39.610Z,24.4
2022-08-16T01:19:44.075Z,24.4
2022-08-16T01:20:46.082Z,24.4
2022-08-16T01:21:52.996Z,24.4
2022-08-16T01:22:56.146Z,24.4
2022-08-16T01:24:02.195Z,24.4
2022-08-16T01:25:04.533Z,24.4
2022-08-16T01:26:33.974Z,24.4
2022-08-16T01:27:38.513Z,24.4
2022-08-16T01:28:45.278Z,24.4
2022-08-16T01:29:57.379Z,24.4
2022-08-16T01:31:01.687Z,24.4
2022-08-16T01:32:03.265Z,24.4
2022-08-16T01:33:14.859Z,24.4
2022-08-16T01:34:22.941Z,24.4
2022-08-16T01:35:28.331Z,24.3
2022-08-16T01:36:37.949Z,24.4
2022-08-16T01:37:39.547Z,24.3
2022-08-16T01:38:47.004Z,24.3
2022-08-16T01:40:00.662Z,24.4
2022-08-16T01:41:08.081Z,24.4
2022-08-16T01:42:12.240Z,24.3
2022-08-16T01:43:26.634Z,24.3
2022-08-16T01:44:37.551Z,24.3
2022-08-16T01:45:41.561Z,24.3
2022-08-16T01:46:45.316Z,24.3
2022-08-16T01:47:49.188Z,24.3
2022-08-16T01:48:53.766Z,24.3
2022-08-16T01:50:41.382Z,24.3
2022-08-16T01:52:27.784Z,24.4
2022-08-16T01:53:32.139Z,24.4
2022-08-16T01:54:37.512Z,24.4
2022-08-16T01:55:41.467Z,24.4
2022-08-16T01:56:55.144Z,24.3
2022-08-16T01:57:57.970Z,24.3
2022-08-16T01:59:01.225Z,24.3
2022-08-16T02:00:02.831Z,24.3
2022-08-16T02:01:04.537Z,24.3
2022-08-16T02:02:22.223Z,24.3
2022-08-16T02:03:30.817Z,24.3
2022-08-16T02:04:48.475Z,24.3
2022-08-16T02:05:56.653Z,24.3
2022-08-16T02:06:59.043Z,24.3
2022-08-16T02:08:01.102Z,24.3
2022-08-16T02:09:05.121Z,24.3
2022-08-16T02:10:07.463Z,24.3
2022-08-16T02:11:09.879Z,24.3
2022-08-16T02:12:39.572Z,24.3
2022-08-16T02:14:03.638Z,24.3
2022-08-16T02:15:05.560Z,24.3
2022-08-16T02:16:07.137Z,24.3
2022-08-16T02:17:20.598Z,24.3
2022-08-16T02:18:24.771Z,24.3
2022-08-16T02:19:58.377Z,24.3
2022-08-16T02:21:02.532Z,24.3
2022-08-16T02:22:08.090Z,24.3
2022-08-16T02:23:38.677Z,24.3
2022-08-16T02:24:45.971Z,24.3
2022-08-16T02:25:50.533Z,24.3
2022-08-16T02:26:56.318Z,24.3
2022-08-16T02:27:58.844Z,24.3
2022-08-16T02:29:01.939Z,24.3
2022-08-16T02:30:05.376Z,24.3
2022-08-16T02:31:07.700Z,24.3
2022-08-16T02:32:49.643Z,24.3
2022-08-16T02:33:54.954Z,24.3
2022-08-16T02:34:56.695Z,24.3
2022-08-16T02:35:58.590Z,24.3
2022-08-16T02:37:05.696Z,24.3
2022-08-16T02:38:09.210Z,24.2
2022-08-16T02:39:10.885Z,24.2
2022-08-16T02:40:16.272Z,24.2
2022-08-16T02:41:18.196Z,24.2
2022-08-16T02:42:21.654Z,24.2
2022-08-16T02:43:26.543Z,24.2
2022-08-16T02:44:29.137Z,24.2
2022-08-16T02:45:30.643Z,24.2
2022-08-16T02:46:33.579Z,24.2
2022-08-16T02:47:57.944Z,24.2
2022-08-16T02:49:58.730Z,24.2
2022-08-16T02:52:17.278Z,24.3
2022-08-16T02:53:34.004Z,24.3
2022-08-16T02:54:35.551Z,24.3
2022-08-16T02:55:40.580Z,24.3
2022-08-16T02:56:43.302Z,24.3
2022-08-16T02:57:54.254Z,24.2
2022-08-16T02:58:56.479Z,24.2
2022-08-16T03:00:05.007Z,24.2
2022-08-16T03:01:38.934Z,24.2
2022-08-16T03:02:42.352Z,24.2
2022-08-16T03:04:30.389Z,24.2
2022-08-16T03:05:55.525Z,24.3
2022-08-16T03:06:57.997Z,24.3
2022-08-16T03:08:00.579Z,24.2
2022-08-16T03:09:02.207Z,24.2
2022-08-16T03:10:04.727Z,24.2
2022-08-16T03:11:16.355Z,24.2
2022-08-16T03:12:30.197Z,24.2
2022-08-16T03:13:58.368Z,24.2
2022-08-16T03:15:01.594Z,24.2
2022-08-16T03:16:03.239Z,24.2
2022-08-16T03:17:04.940Z,24.2
2022-08-16T03:18:12.473Z,24.2
2022-08-16T03:19:47.730Z,24.2
2022-08-16T03:21:04.680Z,24.2
2022-08-16T03:22:06.961Z,24.2
2022-08-16T03:23:08.538Z,24.2
2022-08-16T03:24:27.949Z,24.2
2022-08-16T03:25:41.259Z,24.2
2022-08-16T03:26:49.985Z,24.2
2022-08-16T03:27:53.101Z,24.2
2022-08-16T03:28:55.384Z,24.2
2022-08-16T03:29:58.499Z,24.2
2022-08-16T03:31:00.067Z,24.2
2022-08-16T03:32:03.745Z,24.1
2022-08-16T03:33:05.782Z,24.1
2022-08-16T03:34:09.571Z,24.1
2022-08-16T03:35:17.478Z,24.1
2022-08-16T03:36:30.492Z,24.1
2022-08-16T03:37:49.185Z,24.1
2022-08-16T03:39:36.166Z,24.2
2022-08-16T03:40:45.446Z,24.2
2022-08-16T03:41:49.951Z,24.2
2022-08-16T03:43:19.374Z,24.2
2022-08-16T03:44:40.911Z,24.2
2022-08-16T03:45:52.603Z,24.2
2022-08-16T03:46:55.142Z,24.2
2022-08-16T03:48:00.010Z,24.2
2022-08-16T03:49:01.684Z,24.2
2022-08-16T03:50:03.647Z,24.2
2022-08-16T03:51:28.435Z,24.2
2022-08-16T03:52:31.462Z,24.2
2022-08-16T03:53:37.538Z,24.2
2022-08-16T03:54:45.425Z,24.1
2022-08-16T03:56:01.254Z,24.1
2022-08-16T03:57:02.967Z,24.1
2022-08-16T03:58:16.860Z,24.1
2022-08-16T03:59:18.441Z,24.1
2022-08-16T04:00:20.899Z,24.1
2022-08-16T04:01:43.426Z,24.1
2022-08-16T04:02:54.915Z,24.1
2022-08-16T04:03:57.331Z,24.1
2022-08-16T04:05:00.769Z,24
2022-08-16T04:06:05.543Z,24
2022-08-16T04:07:07.425Z,24.1
2022-08-16T04:08:22.544Z,24
2022-08-16T04:09:28.750Z,24
2022-08-16T04:10:36.485Z,24
2022-08-16T04:11:42.120Z,24
2022-08-16T04:12:52.688Z,24
2022-08-16T04:14:30.978Z,24
2022-08-16T04:15:37.209Z,24.1
2022-08-16T04:16:42.450Z,24.1
2022-08-16T04:17:44.761Z,24.1
2022-08-16T04:18:46.295Z,24.1
2022-08-16T04:19:47.909Z,24
2022-08-16T04:21:01.389Z,24
2022-08-16T04:22:08.637Z,24
2022-08-16T04:23:13.917Z,24.1
2022-08-16T04:24:17.592Z,24.1
2022-08-16T04:25:19.158Z,24.1
2022-08-16T04:26:20.884Z,24.1
2022-08-16T04:27:33.566Z,24.1
2022-08-16T04:28:54.758Z,24.1
2022-08-16T04:30:30.197Z,24.1
2022-08-16T04:31:37.279Z,24.2
2022-08-16T04:32:38.995Z,24.2
2022-08-16T04:33:50.473Z,24.2
2022-08-16T04:34:53.829Z,24.2
2022-08-16T04:35:57.438Z,24.2
2022-08-16T04:37:01.199Z,24.2
2022-08-16T04:38:10.763Z,24.1
2022-08-16T04:39:23.957Z,24.1
2022-08-16T04:40:58.349Z,24.1
2022-08-16T04:42:01.364Z,24.1
2022-08-16T04:43:13.839Z,24.2
2022-08-16T04:44:32.792Z,24.2
2022-08-16T04:46:00.113Z,24.2
2022-08-16T04:47:21.276Z,24.2
2022-08-16T04:48:34.272Z,24.2
2022-08-16T04:49:38.640Z,24.2
2022-08-16T04:50:47.947Z,24.2
2022-08-16T04:51:53.588Z,24.2
2022-08-16T04:52:57.155Z,24.3
2022-08-16T04:54:00.916Z,24.3
2022-08-16T04:55:04.748Z,24.3
2022-08-16T04:56:11.067Z,24.3
2022-08-16T04:57:17.915Z,24.3
2022-08-16T04:58:38.608Z,24.3
2022-08-16T04:59:48.838Z,24.3
2022-08-16T05:00:56.264Z,24.3
2022-08-16T05:01:59.474Z,24.3
2022-08-16T05:04:00.190Z,24.3
2022-08-16T05:05:04.057Z,24.3
2022-08-16T05:06:07.112Z,24.4
2022-08-16T05:07:15.056Z,24.4
2022-08-16T05:08:28.632Z,24.5
2022-08-16T05:09:36.291Z,24.5
2022-08-16T05:10:50.472Z,24.6
2022-08-16T05:11:52.271Z,24.6
2022-08-16T05:12:59.328Z,24.6
2022-08-16T05:14:05.587Z,24.6
2022-08-16T05:15:10.610Z,24.6
2022-08-16T05:16:16.506Z,24.6
2022-08-16T05:17:25.489Z,24.6
2022-08-16T05:18:29.162Z,24.6
2022-08-16T05:19:35.818Z,24.6
2022-08-16T05:20:39.654Z,24.7
2022-08-16T05:22:17.423Z,24.8
2022-08-16T05:23:21.673Z,24.8
2022-08-16T05:24:25.072Z,24.8
2022-08-16T05:25:29.670Z,24.8
2022-08-16T05:26:51.794Z,24.9
2022-08-16T05:27:54.065Z,24.9
2022-08-16T05:28:59.042Z,24.9
2022-08-16T05:30:03.853Z,25
2022-08-16T05:31:44.350Z,25
2022-08-16T05:32:55.681Z,25.1
2022-08-16T05:33:59.931Z,25.1
2022-08-16T05:35:01.794Z,25.1
2022-08-16T05:36:04.094Z,25.1
2022-08-16T05:37:24.440Z,25.1
2022-08-16T05:38:41.135Z,25.1
2022-08-16T05:39:42.763Z,25.1
2022-08-16T05:40:57.132Z,25.1
2022-08-16T05:42:03.396Z,25.1
2022-08-16T05:43:05.121Z,25.1
2022-08-16T05:44:22.680Z,25.1
2022-08-16T05:45:26.788Z,25.1
2022-08-16T05:46:30.202Z,25.1
2022-08-16T05:47:33.309Z,25.1
2022-08-16T05:48:45.036Z,25.2
2022-08-16T05:50:19.070Z,25.3
2022-08-16T05:51:37.753Z,25.3
2022-08-16T05:52:47.198Z,25.4
2022-08-16T05:53:50.605Z,25.4
2022-08-16T05:54:58.412Z,25.4
2022-08-16T05:56:03.481Z,25.4
2022-08-16T05:57:07.303Z,25.5
2022-08-16T05:58:19.934Z,25.6
2022-08-16T05:59:34.998Z,25.6
2022-08-16T06:00:38.453Z,25.7
2022-08-16T06:01:40.269Z,25.7
2022-08-16T06:02:42.733Z,25.8
2022-08-16T06:03:47.728Z,25.8
2022-08-16T06:04:52.635Z,25.7
2022-08-16T06:05:56.269Z,25.7
2022-08-16T06:07:05.757Z,25.7
2022-08-16T06:08:31.567Z,25.8
2022-08-16T06:09:48.491Z,25.8
2022-08-16T06:11:02.526Z,25.8
2022-08-16T06:12:26.528Z,25.8
2022-08-16T06:13:32.588Z,25.9
2022-08-16T06:14:34.510Z,26
2022-08-16T06:15:41.676Z,26
2022-08-16T06:16:43.288Z,26.1
2022-08-16T06:17:44.957Z,26.1
2022-08-16T06:18:46.495Z,26.1
2022-08-16T06:19:49.249Z,26.1
2022-08-16T06:20:55.532Z,26.1
2022-08-16T06:22:02.134Z,26.2
2022-08-16T06:23:11.894Z,26.1
2022-08-16T06:24:53.063Z,26.1
2022-08-16T06:25:57.552Z,26.2
2022-08-16T06:27:00.217Z,26.2
2022-08-16T06:28:08.510Z,26.3
2022-08-16T06:29:38.026Z,26.4
2022-08-16T06:30:43.725Z,26.5
2022-08-16T06:31:49.006Z,26.5
2022-08-16T06:32:52.343Z,26.5
2022-08-16T06:33:56.499Z,26.5
2022-08-16T06:35:02.246Z,26.6
2022-08-16T06:36:04.805Z,26.6
2022-08-16T06:37:10.198Z,26.6
2022-08-16T06:38:22.289Z,26.6
2022-08-16T06:39:46.852Z,26.6
2022-08-16T06:40:52.335Z,26.6
2022-08-16T06:41:53.949Z,26.7
2022-08-16T06:42:57.539Z,26.6
2022-08-16T06:44:00.212Z,26.6
2022-08-16T06:45:01.813Z,26.6
2022-08-16T06:46:03.541Z,26.6
2022-08-16T06:47:06.133Z,26.6
2022-08-16T06:48:10.239Z,26.6
2022-08-16T06:49:12.019Z,26.5
2022-08-16T06:50:22.313Z,26.5
2022-08-16T06:51:45.848Z,26.5
2022-08-16T06:53:08.207Z,26.6
2022-08-16T06:54:16.331Z,26.6
2022-08-16T06:55:17.955Z,26.6
2022-08-16T06:56:22.909Z,26.6
2022-08-16T06:57:25.476Z,26.6
2022-08-16T06:58:31.765Z,26.6
2022-08-16T06:59:48.710Z,26.5
2022-08-16T07:01:03.550Z,26.6
2022-08-16T07:02:32.575Z,26.6
2022-08-16T07:03:54.839Z,26.7
2022-08-16T07:04:59.092Z,26.7
2022-08-16T07:06:01.461Z,26.7
2022-08-16T07:07:04.993Z,26.7
2022-08-16T07:08:11.544Z,26.6
2022-08-16T07:09:13.639Z,26.6
2022-08-16T07:10:18.466Z,26.6
2022-08-16T07:11:46.262Z,26.7
2022-08-16T07:13:03.667Z,26.8
2022-08-16T07:15:25.231Z,26.9
2022-08-16T07:16:27.699Z,27
2022-08-16T07:17:29.473Z,27
2022-08-16T07:18:32.136Z,27
2022-08-16T07:20:02.322Z,27.1
2022-08-16T07:21:59.777Z,27.1
2022-08-16T07:23:02.220Z,27.1
2022-08-16T07:24:26.914Z,27.3
2022-08-16T07:25:32.727Z,27.3
2022-08-16T07:26:41.562Z,27.4
2022-08-16T07:27:51.092Z,27.4
2022-08-16T07:28:52.971Z,27.4
2022-08-16T07:29:55.386Z,27.4
2022-08-16T07:30:57.988Z,27.4
2022-08-16T07:32:00.627Z,27.4
2022-08-16T07:33:02.701Z,27.4
2022-08-16T07:34:10.116Z,27.4
2022-08-16T07:35:12.006Z,27.5
2022-08-16T07:36:21.800Z,27.5
2022-08-16T07:37:24.711Z,27.4
2022-08-16T07:38:31.919Z,27.5
2022-08-16T07:39:36.075Z,27.5
2022-08-16T07:41:01.856Z,27.4
2022-08-16T07:42:19.990Z,27.4
2022-08-16T07:43:40.447Z,27.5
2022-08-16T07:44:48.898Z,27.5
2022-08-16T07:45:52.973Z,27.5
2022-08-16T07:46:55.412Z,27.5
2022-08-16T07:47:58.208Z,27.5
2022-08-16T07:49:13.607Z,27.5
2022-08-16T07:50:55.382Z,27.6
2022-08-16T07:52:18.826Z,27.6
2022-08-16T07:53:22.759Z,27.6
2022-08-16T07:54:32.466Z,27.6
2022-08-16T07:55:54.693Z,27.6
2022-08-16T07:56:56.422Z,27.7
2022-08-16T07:57:59.947Z,27.7
2022-08-16T07:59:05.104Z,27.6
2022-08-16T08:00:06.830Z,27.6
2022-08-16T08:01:20.716Z,27.6
2022-08-16T08:02:30.029Z,27.6
2022-08-16T08:03:35.653Z,27.6
2022-08-16T08:04:50.739Z,27.6
2022-08-16T08:05:52.277Z,27.6
2022-08-16T08:06:54.372Z,27.6
2022-08-16T08:07:57.613Z,27.5
2022-08-16T08:08:59.635Z,27.6
2022-08-16T08:10:01.470Z,27.6
2022-08-16T08:11:12.104Z,27.7
2022-08-16T08:12:31.693Z,27.7
2022-08-16T08:13:50.538Z,27.7
2022-08-16T08:14:55.408Z,27.7
2022-08-16T08:15:57.050Z,27.7
2022-08-16T08:16:58.786Z,27.7
2022-08-16T08:18:29.614Z,27.7
2022-08-16T08:19:33.214Z,27.7
2022-08-16T08:20:34.842Z,27.7
2022-08-16T08:21:58.594Z,27.7
2022-08-16T08:23:07.878Z,27.7
2022-08-16T08:24:11.149Z,27.7
2022-08-16T08:25:18.006Z,27.7
2022-08-16T08:26:20.739Z,27.6
2022-08-16T08:27:25.524Z,27.6
2022-08-16T08:28:27.552Z,27.6
2022-08-16T08:29:37.080Z,27.7
2022-08-16T08:30:50.876Z,27.7
2022-08-16T08:32:49.020Z,27.7
2022-08-16T08:34:05.273Z,27.7
2022-08-16T08:35:09.776Z,27.8
2022-08-16T08:36:12.201Z,27.8
2022-08-16T08:37:23.997Z,27.7
2022-08-16T08:38:56.044Z,27.7
2022-08-16T08:40:00.554Z,27.7
2022-08-16T08:41:04.197Z,27.7
2022-08-16T08:42:05.833Z,27.7
2022-08-16T08:43:12.301Z,27.7
2022-08-16T08:44:28.062Z,27.7
2022-08-16T08:45:46.761Z,27.7
2022-08-16T08:46:59.899Z,27.7
2022-08-16T08:48:29.262Z,27.7
2022-08-16T08:49:44.459Z,27.8
2022-08-16T08:50:59.566Z,27.7
2022-08-16T08:52:01.130Z,27.7
2022-08-16T08:53:10.842Z,27.8
2022-08-16T08:54:17.926Z,27.7
2022-08-16T08:55:24.498Z,27.7
2022-08-16T08:56:26.125Z,27.8
2022-08-16T08:57:28.254Z,27.8
2022-08-16T08:58:34.183Z,27.7
2022-08-16T08:59:40.584Z,27.7
2022-08-16T09:00:50.365Z,27.7
2022-08-16T09:01:56.838Z,27.7
2022-08-16T09:03:04.206Z,27.7
2022-08-16T09:04:14.515Z,27.7
2022-08-16T09:05:20.482Z,27.7
2022-08-16T09:06:23.960Z,27.8
2022-08-16T09:07:28.149Z,27.8
2022-08-16T09:08:29.732Z,27.8
2022-08-16T09:09:38.614Z,27.8
2022-08-16T09:10:42.990Z,27.8
2022-08-16T09:11:51.092Z,27.8
2022-08-16T09:13:08.659Z,27.8
2022-08-16T09:14:24.397Z,27.8
2022-08-16T09:15:31.156Z,27.8
2022-08-16T09:16:57.648Z,27.8
2022-08-16T09:18:59.690Z,27.8
2022-08-16T09:20:10.017Z,27.8
2022-08-16T09:21:14.678Z,27.8
2022-08-16T09:22:32.333Z,27.8
2022-08-16T09:23:36.373Z,27.8
2022-08-16T09:24:52.245Z,27.7
2022-08-16T09:26:44.044Z,27.7
2022-08-16T09:27:56.652Z,27.9
2022-08-16T09:29:16.305Z,27.9
2022-08-16T09:30:47.643Z,28
2022-08-16T09:31:53.276Z,28
2022-08-16T09:32:55.432Z,28
2022-08-16T09:33:57.104Z,28
2022-08-16T09:34:58.826Z,28
2022-08-16T09:36:00.491Z,28
2022-08-16T09:37:02.580Z,27.9
2022-08-16T09:38:37.549Z,27.9
2022-08-16T09:39:44.095Z,27.9
2022-08-16T09:40:52.232Z,27.9
2022-08-16T09:41:55.281Z,28
2022-08-16T09:42:58.905Z,28
2022-08-16T09:44:02.602Z,28
2022-08-16T09:46:46.154Z,28
2022-08-16T09:47:59.256Z,28
2022-08-16T09:49:03.113Z,28
2022-08-16T09:50:13.405Z,28
2022-08-16T09:51:30.695Z,28.1
2022-08-16T09:52:42.713Z,28
2022-08-16T09:53:53.810Z,28
2022-08-16T09:54:59.175Z,28
2022-08-16T09:56:00.812Z,28
2022-08-16T09:57:02.846Z,28
2022-08-16T09:58:04.726Z,28
2022-08-16T09:59:41.938Z,28
2022-08-16T10:00:45.247Z,28
2022-08-16T10:01:48.458Z,27.8
2022-08-16T10:02:53.289Z,27.7
2022-08-16T10:04:04.107Z,27.5
2022-08-16T10:05:55.960Z,27.2
2022-08-16T10:07:59.751Z,26.8
2022-08-16T10:09:42.359Z,26.7
2022-08-16T10:10:57.885Z,26.4
2022-08-16T10:12:11.258Z,26.5
2022-08-16T10:13:21.685Z,26.5
2022-08-16T10:14:24.485Z,26.6
2022-08-16T10:15:35.729Z,26.7
2022-08-16T10:16:42.839Z,26.8
2022-08-16T10:18:03.837Z,26.7
2022-08-16T10:20:10.084Z,26.8
2022-08-16T10:21:24.191Z,26.8
2022-08-16T10:22:33.682Z,26.8
2022-08-16T10:23:42.260Z,26.8
2022-08-16T10:24:55.499Z,26.8
2022-08-16T10:26:59.381Z,26.8
2022-08-16T10:29:59.118Z,26.5
2022-08-16T10:31:43.998Z,26.6
2022-08-16T10:32:58.171Z,26.6
2022-08-16T10:33:59.823Z,26.7
2022-08-16T10:35:02.069Z,26.6
2022-08-16T10:36:04.280Z,26.7
2022-08-16T10:37:06.117Z,26.6
2022-08-16T10:38:09.781Z,26.6
2022-08-16T10:39:40.970Z,26.6
2022-08-16T10:40:45.429Z,26.6
2022-08-16T10:41:47.425Z,26.5
2022-08-16T10:42:49.267Z,26.4
2022-08-16T10:43:52.058Z,26.4
2022-08-16T10:44:55.054Z,26.4
2022-08-16T10:45:57.181Z,26.3
2022-08-16T10:47:02.939Z,26.3
2022-08-16T10:48:26.976Z,26.3
2022-08-16T10:49:33.129Z,26.3
2022-08-16T10:50:34.712Z,26.3
2022-08-16T10:52:01.003Z,26.4
2022-08-16T10:53:21.867Z,26.6
2022-08-16T10:54:28.957Z,26.6
2022-08-16T10:55:44.386Z,26.5
2022-08-16T10:57:03.846Z,26.5
2022-08-16T10:58:13.241Z,26.5
2022-08-16T10:59:38.894Z,26.6
2022-08-16T11:01:00.045Z,26.6
2022-08-16T11:05:04.447Z,26.6
2022-08-16T11:06:12.289Z,26.5
2022-08-16T11:11:05.656Z,26.5
2022-08-16T11:12:21.408Z,26.5
2022-08-16T11:15:18.243Z,26.5
2022-08-16T11:17:02.470Z,26.6
2022-08-16T11:18:48.100Z,26.6
2022-08-16T11:23:51.462Z,26.3
2022-08-16T11:26:06.291Z,26.3
2022-08-16T11:27:32.858Z,26.5
2022-08-16T11:30:19.770Z,26.3
2022-08-16T11:31:42.478Z,26.3
2022-08-16T11:32:55.941Z,26.3
2022-08-16T11:33:58.843Z,26.3
2022-08-16T11:35:10.059Z,26.4
2022-08-16T11:36:28.061Z,26.4
2022-08-16T11:37:34.350Z,26.5
2022-08-16T11:40:00.233Z,26.5
2022-08-16T11:41:03.165Z,26.5
2022-08-16T11:42:07.613Z,26.5
2022-08-16T11:43:38.908Z,26.5
2022-08-16T11:44:52.416Z,26.6
2022-08-16T11:45:58.687Z,26.5
2022-08-16T11:47:48.553Z,26.5
2022-08-16T11:48:51.033Z,26.5
2022-08-16T11:49:52.645Z,26.5
2022-08-16T11:50:54.359Z,26.5
2022-08-16T11:51:56.099Z,26.3
2022-08-16T11:52:59.407Z,26.3
2022-08-16T11:54:05.552Z,26.3
2022-08-16T11:55:37.933Z,26.2
2022-08-16T11:56:52.763Z,26.2
2022-08-16T11:57:59.261Z,26.2
2022-08-16T11:59:02.053Z,26.2
2022-08-16T12:00:03.907Z,26.2
2022-08-16T12:01:59.106Z,26.4
2022-08-16T12:03:36.780Z,26.5
2022-08-16T12:04:42.813Z,26.5
2022-08-16T12:05:45.280Z,26.5
2022-08-16T12:06:47.104Z,26.6
2022-08-16T12:07:56.257Z,26.6
2022-08-16T12:09:06.835Z,26.7
2022-08-16T12:10:16.622Z,26.5
2022-08-16T12:11:18.947Z,26.3
2022-08-16T12:12:28.497Z,26.2
2022-08-16T12:13:30.205Z,26.2
2022-08-16T12:14:35.124Z,26.2
2022-08-16T12:15:39.171Z,26.2
2022-08-16T12:16:40.805Z,26.3
2022-08-16T12:17:58.416Z,26.3
2022-08-16T12:19:00.298Z,26.3
2022-08-16T12:20:02.063Z,26.3
2022-08-16T12:21:19.815Z,26.4
2022-08-16T12:22:23.817Z,26.3
2022-08-16T12:23:25.463Z,26.3
2022-08-16T12:24:27.824Z,26.3
2022-08-16T12:25:29.483Z,26.2
2022-08-16T12:26:31.775Z,26
2022-08-16T12:27:33.325Z,26
2022-08-16T12:28:54.365Z,25.9
2022-08-16T12:29:58.486Z,26.1
2022-08-16T12:31:00.644Z,26.1
2022-08-16T12:32:26.853Z,26.2
2022-08-16T12:33:44.731Z,26.2
2022-08-16T12:34:48.136Z,26.2
2022-08-16T12:35:55.169Z,26.3
2022-08-16T12:36:56.795Z,26.3
2022-08-16T12:37:58.839Z,26.3
2022-08-16T12:39:00.895Z,26.3
2022-08-16T12:40:04.157Z,26.3
2022-08-16T12:41:06.640Z,26.3
2022-08-16T12:42:09.908Z,26.3
2022-08-16T12:43:11.674Z,26.2
2022-08-16T12:44:13.222Z,26.1
2022-08-16T12:45:23.417Z,26.2
2022-08-16T12:46:25.078Z,26.1
2022-08-16T12:47:26.699Z,26.1
2022-08-16T12:48:33.325Z,26.2
2022-08-16T12:49:41.838Z,26
2022-08-16T12:50:49.306Z,26
2022-08-16T12:51:57.900Z,26
2022-08-16T12:53:04.630Z,26.1
2022-08-16T12:54:07.769Z,26.2
2022-08-16T12:55:09.329Z,26.3
2022-08-16T12:56:16.374Z,26.3
2022-08-16T12:57:20.523Z,26.3
2022-08-16T12:58:47.716Z,26.2
2022-08-16T12:59:53.842Z,26
2022-08-16T13:00:57.739Z,26.1
2022-08-16T13:02:02.797Z,26.1
2022-08-16T13:03:39.684Z,26.1
2022-08-16T13:04:42.539Z,26
2022-08-16T13:05:53.664Z,26.1
2022-08-16T13:06:59.583Z,26.1
2022-08-16T13:08:01.707Z,26.1
2022-08-16T13:09:03.267Z,26
2022-08-16T13:10:21.003Z,26
2022-08-16T13:11:41.409Z,25.9
2022-08-16T13:13:00.959Z,25.9
2022-08-16T13:14:02.654Z,25.8
2022-08-16T13:15:07.140Z,25.9
2022-08-16T13:16:15.971Z,25.9
2022-08-16T13:17:29.449Z,25.9
2022-08-16T13:18:33.821Z,25.9
2022-08-16T13:20:06.433Z,25.9
2022-08-16T13:21:13.474Z,25.9
2022-08-16T13:22:18.566Z,25.9
2022-08-16T13:23:21.681Z,25.9
2022-08-16T13:24:25.341Z,25.9
2022-08-16T13:25:27.450Z,25.9
2022-08-16T13:26:30.432Z,25.9
2022-08-16T13:27:34.842Z,25.9
2022-08-16T13:29:16.448Z,25.9
2022-08-16T13:30:22.002Z,25.9
2022-08-16T13:31:45.894Z,26
2022-08-16T13:32:48.101Z,26
2022-08-16T13:33:55.697Z,26
2022-08-16T13:35:01.084Z,26.1
2022-08-16T13:36:02.791Z,26
2022-08-16T13:37:04.489Z,26
2022-08-16T13:38:07.572Z,26
2022-08-16T13:39:10.005Z,26
2022-08-16T13:40:19.517Z,26
2022-08-16T13:41:24.851Z,26
2022-08-16T13:42:31.406Z,26.1
2022-08-16T13:43:33.216Z,26.1
2022-08-16T13:44:49.052Z,26.2
2022-08-16T13:46:00.151Z,26.2
2022-08-16T13:47:07.170Z,26.2
2022-08-16T13:48:08.998Z,26.3
2022-08-16T13:49:10.784Z,26.3
2022-08-16T13:50:12.413Z,26.3
2022-08-16T13:51:15.930Z,26.2
2022-08-16T13:52:20.207Z,26.2
2022-08-16T13:53:24.275Z,26.2
2022-08-16T13:54:28.591Z,26.1
2022-08-16T13:55:33.786Z,26.2
2022-08-16T13:56:37.341Z,26.2
2022-08-16T13:57:53.096Z,26.3
2022-08-16T13:59:57.808Z,26.3
2022-08-16T14:01:04.228Z,26.3
2022-08-16T14:02:12.289Z,26.3
2022-08-16T14:03:18.242Z,26.3
2022-08-16T14:04:23.413Z,26.3
2022-08-16T14:05:29.131Z,26.4
2022-08-16T14:06:30.677Z,26.3
2022-08-16T14:07:32.383Z,26.3
2022-08-16T14:08:43.691Z,26.2
2022-08-16T14:10:08.482Z,26.2
2022-08-16T14:11:11.700Z,26.2
2022-08-16T14:12:17.854Z,26.1
2022-08-16T14:13:21.246Z,26.1
2022-08-16T14:14:28.954Z,26.1
2022-08-16T14:15:33.417Z,26.1
2022-08-16T14:16:37.411Z,26.1
2022-08-16T14:18:16.228Z,26.2
2022-08-16T14:19:31.992Z,26.2
2022-08-16T14:20:33.770Z,26.2
2022-08-16T14:21:35.877Z,26.3
2022-08-16T14:22:40.080Z,26.3
2022-08-16T14:23:44.262Z,26.2
2022-08-16T14:24:47.184Z,26.2
2022-08-16T14:25:54.223Z,26.1
2022-08-16T14:26:59.031Z,26.1
2022-08-16T14:28:06.346Z,26
2022-08-16T14:30:20.707Z,25.9
2022-08-16T14:31:22.344Z,26
2022-08-16T14:32:29.105Z,26
2022-08-16T14:33:36.180Z,26
2022-08-16T14:34:37.729Z,26
2022-08-16T14:35:48.688Z,26
2022-08-16T14:36:53.006Z,26
2022-08-16T14:37:57.102Z,26.1
2022-08-16T14:38:58.950Z,26.1
2022-08-16T14:40:00.687Z,26
2022-08-16T14:41:06.883Z,26
2022-08-16T14:42:12.080Z,26
2022-08-16T14:43:18.429Z,26.1
2022-08-16T14:44:21.117Z,26.1
2022-08-16T14:45:22.699Z,26.1
2022-08-16T14:46:24.261Z,26.1
2022-08-16T14:47:31.660Z,26.1
2022-08-16T14:48:37.032Z,26.1
2022-08-16T14:49:40.597Z,26.1
2022-08-16T14:50:42.541Z,26.1
2022-08-16T14:51:44.819Z,26.1
2022-08-16T14:53:01.780Z,26.1
2022-08-16T14:54:05.702Z,26.1
2022-08-16T14:55:17.027Z,26.1
2022-08-16T14:56:38.326Z,26.1
2022-08-16T14:57:57.975Z,26.1
2022-08-16T14:59:00.318Z,26.1
2022-08-16T15:00:05.875Z,26.1
2022-08-16T15:01:12.724Z,26.1
2022-08-16T15:02:27.757Z,26.1
2022-08-16T15:03:37.298Z,26.1
2022-08-16T15:04:47.808Z,26.1
2022-08-16T15:05:53.940Z,26.1
2022-08-16T15:06:55.961Z,26.1
2022-08-16T15:07:57.708Z,26.1
2022-08-16T15:08:59.189Z,26.1
2022-08-16T15:10:02.067Z,26
2022-08-16T15:11:05.187Z,26.1
2022-08-16T15:12:08.699Z,26.1
2022-08-16T15:13:37.616Z,26.1
2022-08-16T15:14:40.097Z,26.1
2022-08-16T15:15:43.433Z,26.1
2022-08-16T15:16:46.000Z,26
2022-08-16T15:17:54.388Z,26
2022-08-16T15:19:02.904Z,26.1
2022-08-16T15:20:05.443Z,26.1
2022-08-16T15:21:10.850Z,26.1
2022-08-16T15:22:12.449Z,26.1
2022-08-16T15:23:20.737Z,26.1
2022-08-16T15:24:23.738Z,26
2022-08-16T15:25:27.711Z,25.8
2022-08-16T15:26:34.709Z,25.6
2022-08-16T15:27:54.636Z,25.6
2022-08-16T15:28:58.162Z,25.6
2022-08-16T15:30:00.922Z,25.6
2022-08-16T15:31:03.100Z,25.6
2022-08-16T15:32:08.403Z,25.6
2022-08-16T15:33:28.607Z,25.7
2022-08-16T15:34:34.142Z,25.7
2022-08-16T15:35:36.264Z,25.7
2022-08-16T15:36:42.384Z,25.8
2022-08-16T15:37:44.294Z,25.8
2022-08-16T15:38:55.730Z,25.8
2022-08-16T15:40:55.049Z,25.9
2022-08-16T15:42:01.517Z,25.9
2022-08-16T15:43:03.374Z,25.9
2022-08-16T15:44:10.651Z,25.9
2022-08-16T15:45:13.219Z,25.9
2022-08-16T15:46:15.203Z,25.9
2022-08-16T15:48:06.334Z,25.9
2022-08-16T15:49:09.784Z,25.9
2022-08-16T15:50:14.812Z,25.9
2022-08-16T15:51:17.867Z,25.9
2022-08-16T15:52:20.378Z,25.8
2022-08-16T15:53:31.911Z,25.9
2022-08-16T15:55:35.074Z,25.9
2022-08-16T15:56:37.460Z,25.9
2022-08-16T15:57:48.281Z,25.9
2022-08-16T15:58:55.726Z,25.9
2022-08-16T16:00:04.073Z,25.9
2022-08-16T16:01:17.371Z,25.9